createdAt,value
2023-01-12T04:46:19.718Z,725.50
2023-01-12T04:48:46.409Z,716.37
2023-01-12T04:51:13.969Z,716.83
2023-01-12T04:53:40.771Z,721.67
2023-01-12T04:56:08.512Z,719.03
2023-01-12T04:58:35.732Z,742.15
2023-01-12T05:01:14.064Z,742.97
2023-01-12T05:03:41.128Z,731.78
2023-01-12T05:06:08.415Z,733.83
2023-01-12T05:08:54.297Z,740.80
2023-01-12T05:11:21.590Z,736.35
2023-01-12T05:13:48.407Z,736.53
2023-01-12T05:16:17.313Z,730.60
2023-01-12T05:18:45.480Z,734.00
2023-01-12T05:21:13.078Z,728.13
2023-01-12T05:23:39.764Z,734.58
2023-01-12T05:26:06.660Z,730.63
2023-01-12T05:28:33.792Z,733.93
2023-01-12T05:31:06.293Z,735.40
2023-01-12T05:33:33.605Z,741.63
2023-01-12T05:36:03.504Z,725.92
2023-01-12T05:38:30.317Z,738.78
2023-01-12T05:41:03.385Z,737.58
2023-01-12T05:43:49.068Z,732.10
2023-01-12T05:46:17.722Z,745.22
2023-01-12T05:48:44.483Z,731.47
2023-01-12T05:51:11.721Z,738.72
2023-01-12T05:53:38.667Z,734.97
2023-01-12T05:56:32.823Z,743.83
2023-01-12T05:59:01.377Z,737.05
2023-01-12T06:01:32.288Z,735.35
2023-01-12T06:04:01.451Z,737.30
2023-01-12T06:06:33.149Z,742.30
2023-01-12T06:09:00.807Z,749.88
2023-01-12T06:11:46.333Z,744.13
2023-01-12T06:14:12.973Z,752.08
2023-01-12T06:16:41.878Z,739.95
2023-01-12T06:19:12.348Z,742.50
2023-01-12T06:21:40.269Z,741.40
2023-01-12T06:24:07.129Z,744.97
2023-01-12T06:26:33.768Z,746.08
2023-01-12T06:29:00.396Z,744.67
2023-01-12T06:31:27.086Z,748.05
2023-01-12T06:33:53.774Z,743.90
2023-01-12T06:36:20.700Z,739.63
2023-01-12T06:38:47.351Z,736.20
2023-01-12T06:41:32.669Z,743.13
2023-01-12T06:44:00.124Z,742.83
2023-01-12T06:46:27.636Z,741.35
2023-01-12T06:48:58.560Z,739.55
2023-01-12T06:51:25.568Z,736.88
2023-01-12T06:53:52.330Z,715.65
2023-01-12T06:56:18.956Z,713.28
2023-01-12T06:58:45.715Z,727.58
2023-01-12T07:01:13.737Z,728.55
2023-01-12T07:03:40.694Z,735.60
2023-01-12T07:06:07.872Z,728.50
2023-01-12T07:08:34.968Z,734.17
2023-01-12T07:11:07.982Z,747.45
2023-01-12T07:13:35.041Z,739.28
2023-01-12T07:16:02.220Z,741.90
2023-01-12T07:18:29.788Z,748.72
2023-01-12T07:20:56.820Z,753.97
2023-01-12T07:23:23.739Z,745.13
2023-01-12T07:25:50.400Z,739.33
2023-01-12T07:28:17.020Z,747.58
2023-01-12T07:30:43.840Z,740.42
2023-01-12T07:33:12.567Z,742.75
2023-01-12T07:35:40.961Z,744.10
2023-01-12T07:38:07.669Z,745.30
2023-01-12T07:40:34.978Z,746.95
2023-01-12T07:43:03.779Z,755.95
2023-01-12T07:45:30.827Z,750.60
2023-01-12T07:47:58.023Z,747.33
2023-01-12T07:50:26.149Z,750.35
2023-01-12T07:52:52.888Z,750.00
2023-01-12T07:55:20.037Z,743.37
2023-01-12T07:57:57.009Z,746.05
2023-01-12T08:00:24.997Z,753.72
2023-01-12T08:02:53.513Z,748.03
2023-01-12T08:05:22.237Z,751.00
2023-01-12T08:07:49.261Z,745.90
2023-01-12T08:10:16.469Z,755.05
2023-01-12T08:12:43.377Z,754.72
2023-01-12T08:15:10.973Z,752.63
2023-01-12T08:17:45.029Z,752.15
2023-01-12T08:20:28.199Z,755.05
2023-01-12T08:22:59.070Z,758.72
2023-01-12T08:25:31.831Z,749.63
2023-01-12T08:28:03.453Z,761.20
2023-01-12T08:30:30.504Z,757.83
2023-01-12T08:32:59.873Z,761.95
2023-01-12T08:35:28.486Z,751.45
2023-01-12T08:37:56.100Z,756.83
2023-01-12T08:40:24.254Z,755.90
2023-01-12T08:42:50.924Z,759.60
2023-01-12T08:45:17.713Z,757.58
2023-01-12T08:47:45.207Z,759.47
2023-01-12T08:50:11.986Z,763.58
2023-01-12T08:52:38.592Z,762.60
2023-01-12T08:55:05.875Z,762.58
2023-01-12T08:57:32.641Z,759.90
2023-01-12T08:59:59.339Z,768.72
2023-01-12T09:02:27.093Z,761.15
2023-01-12T09:04:53.990Z,773.20
2023-01-12T09:07:20.891Z,760.47
2023-01-12T09:09:47.543Z,759.63
2023-01-12T09:12:14.207Z,758.50
2023-01-12T09:14:40.885Z,755.85
2023-01-12T09:17:07.728Z,757.03
2023-01-12T09:19:34.582Z,763.78
2023-01-12T09:22:01.218Z,757.00
2023-01-12T09:24:27.928Z,760.92
2023-01-12T09:26:54.599Z,757.60
2023-01-12T09:29:21.369Z,766.20
2023-01-12T09:31:48.064Z,758.70
2023-01-12T09:34:14.903Z,767.15
2023-01-12T09:36:42.031Z,771.80
2023-01-12T09:39:10.321Z,766.45
2023-01-12T09:42:02.837Z,769.67
2023-01-12T09:44:56.469Z,773.58
2023-01-12T09:47:48.613Z,769.67
2023-01-12T09:50:21.986Z,772.15
2023-01-12T09:53:12.672Z,779.80
2023-01-12T09:56:04.051Z,780.05
2023-01-12T09:58:49.479Z,797.15
2023-01-12T10:01:28.835Z,810.30
2023-01-12T10:03:58.662Z,807.50
2023-01-12T10:06:25.404Z,806.55
2023-01-12T10:08:58.274Z,807.85
2023-01-12T10:11:49.491Z,808.08
2023-01-12T10:14:28.035Z,805.22
2023-01-12T10:17:00.398Z,812.10
2023-01-12T10:19:38.982Z,806.13
2023-01-12T10:22:38.485Z,802.50
2023-01-12T10:25:14.343Z,781.50
2023-01-12T10:27:47.348Z,783.35
2023-01-12T10:30:18.677Z,791.33
2023-01-12T10:32:45.561Z,791.50
2023-01-12T10:35:17.485Z,805.00
2023-01-12T10:37:53.728Z,796.80
2023-01-12T10:40:30.170Z,784.20
2023-01-12T10:43:31.897Z,794.05
2023-01-12T10:46:18.285Z,793.17
2023-01-12T10:48:49.749Z,794.13
2023-01-12T10:51:22.164Z,782.95
2023-01-12T10:53:53.817Z,784.95
2023-01-12T10:56:23.554Z,767.50
2023-01-12T10:58:57.701Z,780.83
2023-01-12T11:01:24.717Z,775.27
2023-01-12T11:03:51.499Z,774.35
2023-01-12T11:06:28.535Z,761.00
2023-01-12T11:08:56.114Z,766.53
2023-01-12T11:11:40.761Z,766.42
2023-01-12T11:14:24.370Z,792.53
2023-01-12T11:16:51.072Z,792.67
2023-01-12T11:19:31.719Z,791.17
2023-01-12T11:22:12.818Z,794.40
2023-01-12T11:24:47.524Z,807.28
2023-01-12T11:27:24.692Z,814.55
2023-01-12T11:30:03.176Z,809.23
2023-01-12T11:32:39.690Z,814.10
2023-01-12T11:35:29.225Z,813.83
2023-01-12T11:38:00.935Z,816.97
2023-01-12T11:40:34.352Z,820.20
2023-01-12T11:43:30.957Z,819.63
2023-01-12T11:46:26.501Z,821.50
2023-01-12T11:49:08.006Z,822.13
2023-01-12T11:51:34.714Z,827.17
2023-01-12T11:54:01.514Z,822.70
2023-01-12T11:56:55.671Z,819.00
2023-01-12T12:00:06.905Z,828.83
2023-01-12T12:02:33.605Z,818.97
2023-01-12T12:05:25.335Z,823.13
2023-01-12T12:08:23.093Z,811.58
2023-01-12T12:11:08.440Z,785.15
2023-01-12T12:13:53.361Z,803.80
2023-01-12T12:16:50.184Z,780.30
2023-01-12T12:19:25.643Z,791.58
2023-01-12T12:22:01.404Z,784.30
2023-01-12T12:24:40.257Z,792.45
2023-01-12T12:27:37.058Z,792.10
2023-01-12T12:30:09.704Z,792.13
2023-01-12T12:32:53.151Z,812.33
2023-01-12T12:35:33.372Z,795.60
2023-01-12T12:38:08.916Z,795.38
2023-01-12T12:41:12.895Z,803.17
2023-01-12T12:43:58.373Z,799.55
2023-01-12T12:46:42.329Z,802.72
2023-01-12T12:49:16.630Z,804.40
2023-01-12T12:51:44.636Z,812.67
2023-01-12T12:54:17.174Z,816.05
2023-01-12T12:56:44.680Z,819.05
2023-01-12T12:59:31.310Z,812.83
2023-01-12T13:02:00.205Z,815.75
2023-01-12T13:05:00.157Z,821.90
2023-01-12T13:07:27.449Z,814.22
2023-01-12T13:10:10.343Z,829.92
2023-01-12T13:12:37.392Z,821.33
2023-01-12T13:15:36.604Z,814.63
2023-01-12T13:18:05.380Z,829.53
2023-01-12T13:20:51.960Z,823.88
2023-01-12T13:23:48.045Z,837.22
2023-01-12T13:26:33.206Z,826.92
2023-01-12T13:29:28.021Z,822.63
2023-01-12T13:32:34.834Z,825.42
2023-01-12T13:35:01.761Z,828.13
2023-01-12T13:37:42.480Z,824.60
2023-01-12T13:40:19.890Z,821.03
2023-01-12T13:43:07.920Z,823.65
2023-01-12T13:45:36.233Z,832.78
2023-01-12T13:48:06.302Z,823.92
2023-01-12T13:50:35.955Z,830.25
2023-01-12T13:53:04.409Z,835.53
2023-01-12T13:55:33.426Z,829.63
2023-01-12T13:58:06.919Z,842.50
2023-01-12T14:00:34.871Z,845.05
2023-01-12T14:03:03.942Z,844.72
2023-01-12T14:05:51.826Z,840.72
2023-01-12T14:08:52.225Z,843.88
2023-01-12T14:11:19.116Z,834.15
2023-01-12T14:13:51.835Z,840.92
2023-01-12T14:16:37.231Z,836.10
2023-01-12T14:19:28.345Z,836.72
2023-01-12T14:21:57.878Z,841.05
2023-01-12T14:24:25.275Z,837.83
2023-01-12T14:26:52.116Z,834.30
2023-01-12T14:29:18.835Z,829.33
2023-01-12T14:31:48.527Z,826.70
2023-01-12T14:34:26.926Z,825.67
2023-01-12T14:36:53.744Z,831.67
2023-01-12T14:39:26.436Z,836.65
2023-01-12T14:42:13.955Z,829.00
2023-01-12T14:45:12.091Z,835.42
2023-01-12T14:47:39.690Z,840.17
2023-01-12T14:50:22.669Z,827.63
2023-01-12T14:52:49.491Z,841.35
2023-01-12T14:55:22.182Z,834.92
2023-01-12T14:57:53.424Z,837.67
2023-01-12T15:00:26.626Z,829.08
2023-01-12T15:02:55.758Z,838.17
2023-01-12T15:05:26.231Z,836.13
2023-01-12T15:08:26.775Z,836.22
2023-01-12T15:11:28.794Z,834.03
2023-01-12T15:13:58.117Z,828.80
2023-01-12T15:16:43.323Z,826.92
2023-01-12T15:19:29.074Z,833.22
2023-01-12T15:22:15.048Z,837.28
2023-01-12T15:25:00.486Z,833.08
2023-01-12T15:27:27.387Z,836.80
2023-01-12T15:29:55.179Z,836.40
2023-01-12T15:32:49.600Z,830.53
2023-01-12T15:35:23.605Z,828.78
2023-01-12T15:37:53.208Z,840.17
2023-01-12T15:40:20.441Z,835.17
2023-01-12T15:42:47.790Z,835.30
2023-01-12T15:45:33.174Z,834.55
2023-01-12T15:48:00.552Z,834.58
2023-01-12T15:50:29.202Z,834.03
2023-01-12T15:52:58.229Z,838.88
2023-01-12T15:55:25.161Z,832.30
2023-01-12T15:57:52.242Z,833.40
2023-01-12T16:00:21.728Z,834.08
2023-01-12T16:02:49.950Z,837.53
2023-01-12T16:05:20.468Z,837.10
2023-01-12T16:07:48.877Z,841.75
2023-01-12T16:10:16.728Z,839.57
2023-01-12T16:12:44.283Z,832.92
2023-01-12T16:15:21.272Z,827.40
2023-01-12T16:17:48.865Z,830.45
2023-01-12T16:20:17.537Z,827.67
2023-01-12T16:22:45.374Z,839.08
2023-01-12T16:25:12.765Z,828.00
2023-01-12T16:27:39.915Z,829.97
2023-01-12T16:30:12.786Z,835.30
2023-01-12T16:32:40.837Z,832.13
2023-01-12T16:35:07.639Z,832.20
2023-01-12T16:37:35.264Z,841.28
2023-01-12T16:40:02.026Z,836.47
2023-01-12T16:42:28.809Z,843.90
2023-01-12T16:44:55.446Z,833.97
2023-01-12T16:47:22.399Z,844.15
2023-01-12T16:49:51.036Z,837.45
2023-01-12T16:52:19.796Z,839.37
2023-01-12T16:54:46.523Z,838.75
2023-01-12T16:57:15.497Z,831.42
2023-01-12T16:59:42.529Z,836.50
2023-01-12T17:02:17.061Z,831.40
2023-01-12T17:04:44.864Z,833.58
2023-01-12T17:07:12.536Z,834.45
2023-01-12T17:09:40.374Z,840.95
2023-01-12T17:12:07.787Z,836.67
2023-01-12T17:14:35.175Z,841.17
2023-01-12T17:17:08.274Z,832.77
2023-01-12T17:19:37.251Z,827.83
2023-01-12T17:22:06.616Z,837.20
2023-01-12T17:24:35.328Z,831.67
2023-01-12T17:27:02.485Z,824.67
2023-01-12T17:29:29.342Z,825.03
2023-01-12T17:32:05.146Z,823.95
2023-01-12T17:34:38.908Z,825.00
2023-01-12T17:37:08.441Z,824.23
2023-01-12T17:39:46.022Z,817.70
2023-01-12T17:42:33.033Z,805.00
2023-01-12T17:44:59.998Z,811.42
2023-01-12T17:47:26.814Z,813.90
2023-01-12T17:49:54.267Z,810.03
2023-01-12T17:52:21.033Z,806.15
2023-01-12T17:54:47.765Z,813.35
2023-01-12T17:57:14.700Z,817.17
2023-01-12T17:59:41.399Z,814.83
2023-01-12T18:02:10.305Z,815.15
2023-01-12T18:04:36.930Z,812.30
2023-01-12T18:07:03.782Z,811.95
2023-01-12T18:09:31.355Z,811.93
2023-01-12T18:12:00.158Z,812.87
2023-01-12T18:14:26.974Z,808.25
2023-01-12T18:16:53.621Z,809.85
2023-01-12T18:19:20.268Z,813.33
2023-01-12T18:21:48.807Z,817.88
2023-01-12T18:24:15.433Z,814.13
2023-01-12T18:26:42.086Z,827.30
2023-01-12T18:29:08.736Z,813.58
2023-01-12T18:31:37.431Z,816.63
2023-01-12T18:34:06.127Z,817.47
2023-01-12T18:36:35.112Z,809.23
2023-01-12T18:39:03.301Z,812.35
2023-01-12T18:41:48.607Z,812.50
2023-01-12T18:44:15.384Z,809.65
2023-01-12T18:47:02.534Z,807.13
2023-01-12T18:49:32.000Z,818.40
2023-01-12T18:52:17.944Z,808.90
2023-01-12T18:54:47.458Z,816.10
2023-01-12T18:57:19.330Z,815.60
2023-01-12T18:59:51.905Z,802.25
2023-01-12T19:02:20.037Z,791.70
2023-01-12T19:04:50.195Z,812.97
2023-01-12T19:07:50.838Z,807.90
2023-01-12T19:10:17.993Z,810.63
2023-01-12T19:12:45.835Z,814.75
2023-01-12T19:15:32.041Z,813.53
2023-01-12T19:17:58.942Z,803.77
2023-01-12T19:20:30.095Z,813.42
2023-01-12T19:23:16.493Z,809.90
2023-01-12T19:26:01.851Z,820.40
2023-01-12T19:28:38.205Z,822.65
2023-01-12T19:31:09.836Z,813.97
2023-01-12T19:33:37.070Z,818.72
2023-01-12T19:36:13.922Z,809.53
2023-01-12T19:38:43.300Z,816.72
2023-01-12T19:41:12.559Z,799.47
2023-01-12T19:43:45.043Z,815.47
2023-01-12T19:46:13.120Z,825.97
2023-01-12T19:48:40.003Z,824.08
2023-01-12T19:51:10.432Z,821.38
2023-01-12T19:53:38.976Z,830.42
2023-01-12T19:56:10.414Z,823.65
2023-01-12T19:58:37.239Z,831.50
2023-01-12T20:01:04.213Z,822.72
2023-01-12T20:03:30.917Z,825.20
2023-01-12T20:05:57.613Z,823.55
2023-01-12T20:08:25.166Z,819.70
2023-01-12T20:10:57.525Z,824.08
2023-01-12T20:13:24.915Z,828.22
2023-01-12T20:15:52.337Z,827.58
2023-01-12T20:18:19.059Z,814.90
2023-01-12T20:20:46.479Z,821.30
2023-01-12T20:23:14.871Z,825.20
2023-01-12T20:25:43.067Z,828.70
2023-01-12T20:28:12.051Z,817.55
2023-01-12T20:30:41.646Z,824.47
2023-01-12T20:33:08.992Z,810.42
2023-01-12T20:35:38.176Z,797.92
2023-01-12T20:38:06.662Z,794.63
2023-01-12T20:40:33.674Z,793.53
2023-01-12T20:43:00.632Z,782.67
2023-01-12T20:45:27.398Z,784.53
2023-01-12T20:47:55.752Z,781.40
2023-01-12T20:50:25.312Z,787.80
2023-01-12T20:52:52.827Z,784.23
2023-01-12T20:55:20.995Z,785.97
2023-01-12T20:57:47.811Z,776.45
2023-01-12T21:00:14.620Z,787.75
2023-01-12T21:02:41.228Z,777.92
2023-01-12T21:05:08.980Z,786.33
2023-01-12T21:07:37.213Z,792.42
2023-01-12T21:10:04.263Z,787.83
2023-01-12T21:12:30.890Z,783.35
2023-01-12T21:14:57.557Z,779.78
2023-01-12T21:17:24.338Z,780.72
2023-01-12T21:19:51.031Z,777.70
2023-01-12T21:22:17.696Z,770.70
2023-01-12T21:24:44.301Z,773.55
2023-01-12T21:27:11.051Z,772.63
2023-01-12T21:29:37.731Z,765.30
2023-01-12T21:32:04.614Z,773.55
2023-01-12T21:34:31.233Z,767.80
2023-01-12T21:36:58.242Z,764.72
2023-01-12T21:39:24.880Z,764.10
2023-01-12T21:42:10.112Z,767.70
2023-01-12T21:44:36.719Z,765.78
2023-01-12T21:47:03.400Z,764.92
2023-01-12T21:49:30.061Z,766.72
2023-01-12T21:51:56.686Z,769.63
2023-01-12T21:54:23.326Z,759.30
2023-01-12T21:56:49.951Z,769.78
2023-01-12T21:59:16.614Z,764.20
2023-01-12T22:01:43.314Z,752.78
2023-01-12T22:04:17.211Z,759.57
2023-01-12T22:06:43.848Z,759.17
2023-01-12T22:09:10.457Z,760.75
2023-01-12T22:11:37.055Z,769.03
2023-01-12T22:14:03.703Z,775.00
2023-01-12T22:16:30.364Z,772.72
2023-01-12T22:18:57.007Z,779.85
2023-01-12T22:21:23.774Z,790.75
2023-01-12T22:23:50.530Z,793.10
2023-01-12T22:26:18.443Z,780.70
2023-01-12T22:28:49.873Z,776.78
2023-01-12T22:31:19.461Z,768.58
2023-01-12T22:33:48.075Z,763.65
2023-01-12T22:36:14.804Z,774.13
2023-01-12T22:38:42.151Z,762.17
2023-01-12T22:41:11.612Z,763.40
2023-01-12T22:43:41.846Z,760.40
2023-01-12T22:46:19.477Z,751.25
2023-01-12T22:48:50.737Z,757.88
2023-01-12T22:51:20.683Z,754.45
2023-01-12T22:53:48.066Z,756.03
2023-01-12T22:56:15.088Z,757.15
2023-01-12T22:58:49.931Z,754.40
2023-01-12T23:01:18.286Z,753.38
2023-01-12T23:03:45.408Z,749.67
2023-01-12T23:06:14.551Z,749.88
2023-01-12T23:08:43.501Z,748.45
2023-01-12T23:11:19.184Z,752.40
2023-01-12T23:13:46.651Z,746.60
2023-01-12T23:16:15.512Z,747.80
2023-01-12T23:18:44.030Z,748.55
2023-01-12T23:21:15.372Z,750.60
2023-01-12T23:23:50.261Z,747.42
2023-01-12T23:26:20.356Z,747.45
2023-01-12T23:28:49.984Z,747.58
2023-01-12T23:31:21.102Z,752.65
2023-01-12T23:33:48.342Z,750.33
2023-01-12T23:36:17.860Z,739.45
2023-01-12T23:38:45.079Z,738.50
2023-01-12T23:41:18.229Z,739.42
2023-01-12T23:43:46.772Z,742.88
2023-01-12T23:46:16.753Z,745.45
2023-01-12T23:48:43.853Z,747.72
2023-01-12T23:51:10.679Z,751.92
2023-01-12T23:53:37.323Z,752.70
2023-01-12T23:56:06.352Z,745.15
2023-01-12T23:58:33.430Z,751.47
